sensor_id;sensor_type;location;lat;lon;timestamp;temperature;humidity
42973;DHT22;28610;51.214;6.962;2022-08-19T00:01:47;20.00;88.20
42973;DHT22;28610;51.214;6.962;2022-08-19T00:04:34;20.00;88.00
42973;DHT22;28610;51.214;6.962;2022-08-19T00:07:20;19.90;88.60
42973;DHT22;28610;51.214;6.962;2022-08-19T00:10:07;19.90;88.50
42973;DHT22;28610;51.214;6.962;2022-08-19T00:12:52;19.80;88.40
42973;DHT22;28610;51.214;6.962;2022-08-19T00:15:37;19.80;88.80
42973;DHT22;28610;51.214;6.962;2022-08-19T00:18:24;19.70;89.30
42973;DHT22;28610;51.214;6.962;2022-08-19T00:21:10;19.70;89.70
42973;DHT22;28610;51.214;6.962;2022-08-19T00:23:55;19.60;90.30
42973;DHT22;28610;51.214;6.962;2022-08-19T00:26:43;19.50;90.10
42973;DHT22;28610;51.214;6.962;2022-08-19T00:29:29;19.50;90.20
42973;DHT22;28610;51.214;6.962;2022-08-19T00:32:14;19.50;90.20
42973;DHT22;28610;51.214;6.962;2022-08-19T00:35:01;19.50;90.30
42973;DHT22;28610;51.214;6.962;2022-08-19T00:37:47;19.50;90.40
42973;DHT22;28610;51.214;6.962;2022-08-19T00:40:33;19.50;90.40
42973;DHT22;28610;51.214;6.962;2022-08-19T00:43:20;19.50;90.50
42973;DHT22;28610;51.214;6.962;2022-08-19T00:46:05;19.40;90.70
42973;DHT22;28610;51.214;6.962;2022-08-19T00:48:51;19.30;91.00
42973;DHT22;28610;51.214;6.962;2022-08-19T00:51:37;19.40;91.00
42973;DHT22;28610;51.214;6.962;2022-08-19T00:54:23;19.40;91.20
42973;DHT22;28610;51.214;6.962;2022-08-19T00:57:15;19.30;91.20
42973;DHT22;28610;51.214;6.962;2022-08-19T01:00:05;19.30;91.30
42973;DHT22;28610;51.214;6.962;2022-08-19T01:02:53;19.30;91.30
42973;DHT22;28610;51.214;6.962;2022-08-19T01:05:40;19.30;91.10
42973;DHT22;28610;51.214;6.962;2022-08-19T01:08:27;19.30;91.00
42973;DHT22;28610;51.214;6.962;2022-08-19T01:11:12;19.20;91.20
42973;DHT22;28610;51.214;6.962;2022-08-19T01:13:58;19.10;91.30
42973;DHT22;28610;51.214;6.962;2022-08-19T01:16:45;19.10;91.20
42973;DHT22;28610;51.214;6.962;2022-08-19T01:19:33;19.00;91.30
42973;DHT22;28610;51.214;6.962;2022-08-19T01:22:27;19.00;91.40
42973;DHT22;28610;51.214;6.962;2022-08-19T01:25:16;19.00;91.60
42973;DHT22;28610;51.214;6.962;2022-08-19T01:28:01;19.00;91.70
42973;DHT22;28610;51.214;6.962;2022-08-19T01:30:47;19.00;91.60
42973;DHT22;28610;51.214;6.962;2022-08-19T01:33:32;19.00;91.70
42973;DHT22;28610;51.214;6.962;2022-08-19T01:36:23;18.90;91.80
42973;DHT22;28610;51.214;6.962;2022-08-19T01:39:13;18.90;91.70
42973;DHT22;28610;51.214;6.962;2022-08-19T01:41:59;18.90;92.00
42973;DHT22;28610;51.214;6.962;2022-08-19T01:44:47;18.80;92.30
42973;DHT22;28610;51.214;6.962;2022-08-19T01:47:33;18.80;92.10
42973;DHT22;28610;51.214;6.962;2022-08-19T01:50:19;18.70;92.80
42973;DHT22;28610;51.214;6.962;2022-08-19T01:53:08;18.80;92.40
42973;DHT22;28610;51.214;6.962;2022-08-19T01:55:55;18.70;92.60
42973;DHT22;28610;51.214;6.962;2022-08-19T01:58:44;18.80;92.50
42973;DHT22;28610;51.214;6.962;2022-08-19T02:01:31;18.80;92.30
42973;DHT22;28610;51.214;6.962;2022-08-19T02:04:18;18.70;92.70
42973;DHT22;28610;51.214;6.962;2022-08-19T02:07:04;18.60;92.80
42973;DHT22;28610;51.214;6.962;2022-08-19T02:09:50;18.50;93.10
42973;DHT22;28610;51.214;6.962;2022-08-19T02:12:37;18.40;93.30
42973;DHT22;28610;51.214;6.962;2022-08-19T02:15:22;18.50;93.40
42973;DHT22;28610;51.214;6.962;2022-08-19T02:18:09;18.50;93.40
42973;DHT22;28610;51.214;6.962;2022-08-19T02:20:55;18.50;93.30
42973;DHT22;28610;51.214;6.962;2022-08-19T02:23:40;18.50;93.30
42973;DHT22;28610;51.214;6.962;2022-08-19T02:26:26;18.60;93.10
42973;DHT22;28610;51.214;6.962;2022-08-19T02:29:13;18.50;93.20
42973;DHT22;28610;51.214;6.962;2022-08-19T02:31:58;18.40;93.70
42973;DHT22;28610;51.214;6.962;2022-08-19T02:34:43;18.40;94.00
42973;DHT22;28610;51.214;6.962;2022-08-19T02:37:29;18.40;93.90
42973;DHT22;28610;51.214;6.962;2022-08-19T02:40:33;18.40;93.80
42973;DHT22;28610;51.214;6.962;2022-08-19T02:43:19;18.40;94.00
42973;DHT22;28610;51.214;6.962;2022-08-19T02:46:13;18.40;94.00
42973;DHT22;28610;51.214;6.962;2022-08-19T02:49:02;18.40;94.10
42973;DHT22;28610;51.214;6.962;2022-08-19T02:51:48;18.40;94.10
42973;DHT22;28610;51.214;6.962;2022-08-19T02:54:34;18.50;93.90
42973;DHT22;28610;51.214;6.962;2022-08-19T02:57:19;18.60;93.60
42973;DHT22;28610;51.214;6.962;2022-08-19T03:00:06;18.50;93.80
42973;DHT22;28610;51.214;6.962;2022-08-19T03:02:53;18.60;93.40
42973;DHT22;28610;51.214;6.962;2022-08-19T03:05:41;18.60;93.20
42973;DHT22;28610;51.214;6.962;2022-08-19T03:08:26;18.40;93.40
42973;DHT22;28610;51.214;6.962;2022-08-19T03:11:17;18.50;93.30
42973;DHT22;28610;51.214;6.962;2022-08-19T03:14:04;18.40;93.70
42973;DHT22;28610;51.214;6.962;2022-08-19T03:16:51;18.30;93.90
42973;DHT22;28610;51.214;6.962;2022-08-19T03:19:38;18.40;93.90
42973;DHT22;28610;51.214;6.962;2022-08-19T03:22:24;18.30;93.90
42973;DHT22;28610;51.214;6.962;2022-08-19T03:25:10;18.40;94.00
42973;DHT22;28610;51.214;6.962;2022-08-19T03:27:56;18.40;93.90
42973;DHT22;28610;51.214;6.962;2022-08-19T03:30:42;18.30;94.20
42973;DHT22;28610;51.214;6.962;2022-08-19T03:33:29;18.30;94.10
42973;DHT22;28610;51.214;6.962;2022-08-19T03:36:17;18.20;94.10
42973;DHT22;28610;51.214;6.962;2022-08-19T03:39:04;18.20;94.20
42973;DHT22;28610;51.214;6.962;2022-08-19T03:41:54;18.20;94.10
42973;DHT22;28610;51.214;6.962;2022-08-19T03:44:41;18.20;94.00
42973;DHT22;28610;51.214;6.962;2022-08-19T03:47:28;18.20;94.00
42973;DHT22;28610;51.214;6.962;2022-08-19T03:50:15;18.20;94.00
42973;DHT22;28610;51.214;6.962;2022-08-19T03:53:02;18.00;94.40
42973;DHT22;28610;51.214;6.962;2022-08-19T03:55:47;18.10;94.30
42973;DHT22;28610;51.214;6.962;2022-08-19T03:58:33;18.20;93.90
42973;DHT22;28610;51.214;6.962;2022-08-19T04:01:21;18.40;93.90
42973;DHT22;28610;51.214;6.962;2022-08-19T04:04:06;18.50;93.50
42973;DHT22;28610;51.214;6.962;2022-08-19T04:06:52;18.60;93.50
42973;DHT22;28610;51.214;6.962;2022-08-19T04:09:38;18.70;93.10
42973;DHT22;28610;51.214;6.962;2022-08-19T04:12:24;18.70;93.10
42973;DHT22;28610;51.214;6.962;2022-08-19T04:15:10;18.60;93.40
42973;DHT22;28610;51.214;6.962;2022-08-19T04:17:56;18.50;93.70
42973;DHT22;28610;51.214;6.962;2022-08-19T04:20:43;18.40;94.20
42973;DHT22;28610;51.214;6.962;2022-08-19T04:23:28;18.40;94.40
42973;DHT22;28610;51.214;6.962;2022-08-19T04:26:17;18.40;94.50
42973;DHT22;28610;51.214;6.962;2022-08-19T04:29:05;18.40;94.30
42973;DHT22;28610;51.214;6.962;2022-08-19T04:31:51;18.40;94.60
42973;DHT22;28610;51.214;6.962;2022-08-19T04:34:37;18.30;94.80
42973;DHT22;28610;51.214;6.962;2022-08-19T04:37:23;18.20;94.90
42973;DHT22;28610;51.214;6.962;2022-08-19T04:40:09;18.30;94.80
42973;DHT22;28610;51.214;6.962;2022-08-19T04:43:14;18.30;94.90
42973;DHT22;28610;51.214;6.962;2022-08-19T04:46:05;18.20;95.00
42973;DHT22;28610;51.214;6.962;2022-08-19T04:48:51;18.30;94.80
42973;DHT22;28610;51.214;6.962;2022-08-19T04:51:36;18.40;94.80
42973;DHT22;28610;51.214;6.962;2022-08-19T04:54:23;18.40;94.70
42973;DHT22;28610;51.214;6.962;2022-08-19T04:57:09;18.40;94.90
42973;DHT22;28610;51.214;6.962;2022-08-19T04:59:56;18.40;94.70
42973;DHT22;28610;51.214;6.962;2022-08-19T05:02:42;18.40;95.00
42973;DHT22;28610;51.214;6.962;2022-08-19T05:05:27;18.40;95.00
42973;DHT22;28610;51.214;6.962;2022-08-19T05:08:16;18.40;94.90
42973;DHT22;28610;51.214;6.962;2022-08-19T05:11:08;18.40;95.00
42973;DHT22;28610;51.214;6.962;2022-08-19T05:13:54;18.50;95.20
42973;DHT22;28610;51.214;6.962;2022-08-19T05:16:41;18.70;94.70
42973;DHT22;28610;51.214;6.962;2022-08-19T05:19:26;18.80;94.70
42973;DHT22;28610;51.214;6.962;2022-08-19T05:22:29;18.90;94.20
42973;DHT22;28610;51.214;6.962;2022-08-19T05:25:20;19.10;94.00
42973;DHT22;28610;51.214;6.962;2022-08-19T05:28:06;19.20;93.60
42973;DHT22;28610;51.214;6.962;2022-08-19T05:30:51;19.50;93.30
42973;DHT22;28610;51.214;6.962;2022-08-19T05:33:41;19.60;92.90
42973;DHT22;28610;51.214;6.962;2022-08-19T05:36:26;19.60;92.30
42973;DHT22;28610;51.214;6.962;2022-08-19T05:39:14;19.70;92.40
42973;DHT22;28610;51.214;6.962;2022-08-19T05:42:02;19.70;92.50
42973;DHT22;28610;51.214;6.962;2022-08-19T05:44:50;19.80;92.40
42973;DHT22;28610;51.214;6.962;2022-08-19T05:47:36;19.70;92.10
42973;DHT22;28610;51.214;6.962;2022-08-19T05:50:22;19.40;92.90
42973;DHT22;28610;51.214;6.962;2022-08-19T05:53:10;19.20;93.40
42973;DHT22;28610;51.214;6.962;2022-08-19T05:55:56;19.30;93.50
42973;DHT22;28610;51.214;6.962;2022-08-19T05:58:42;19.30;93.50
42973;DHT22;28610;51.214;6.962;2022-08-19T06:01:28;19.30;93.50
42973;DHT22;28610;51.214;6.962;2022-08-19T06:04:14;19.30;93.20
42973;DHT22;28610;51.214;6.962;2022-08-19T06:07:01;19.30;93.10
42973;DHT22;28610;51.214;6.962;2022-08-19T06:09:47;19.30;93.60
42973;DHT22;28610;51.214;6.962;2022-08-19T06:12:34;19.50;93.30
42973;DHT22;28610;51.214;6.962;2022-08-19T06:15:19;19.40;93.00
42973;DHT22;28610;51.214;6.962;2022-08-19T06:18:05;19.60;93.00
42973;DHT22;28610;51.214;6.962;2022-08-19T06:20:51;19.70;92.50
42973;DHT22;28610;51.214;6.962;2022-08-19T06:23:37;19.90;92.30
42973;DHT22;28610;51.214;6.962;2022-08-19T06:26:23;20.00;92.00
42973;DHT22;28610;51.214;6.962;2022-08-19T06:29:10;19.90;91.70
42973;DHT22;28610;51.214;6.962;2022-08-19T06:31:58;20.00;91.90
42973;DHT22;28610;51.214;6.962;2022-08-19T06:34:44;19.80;92.00
42973;DHT22;28610;51.214;6.962;2022-08-19T06:37:29;19.70;92.20
42973;DHT22;28610;51.214;6.962;2022-08-19T06:40:16;19.80;92.20
42973;DHT22;28610;51.214;6.962;2022-08-19T06:43:01;19.90;92.20
42973;DHT22;28610;51.214;6.962;2022-08-19T06:45:47;19.90;92.20
42973;DHT22;28610;51.214;6.962;2022-08-19T06:48:32;20.00;92.00
42973;DHT22;28610;51.214;6.962;2022-08-19T06:51:17;19.90;92.40
42973;DHT22;28610;51.214;6.962;2022-08-19T06:54:03;20.00;92.10
42973;DHT22;28610;51.214;6.962;2022-08-19T06:56:50;20.00;92.00
42973;DHT22;28610;51.214;6.962;2022-08-19T06:59:35;20.10;91.90
42973;DHT22;28610;51.214;6.962;2022-08-19T07:02:20;20.20;91.80
42973;DHT22;28610;51.214;6.962;2022-08-19T07:05:10;20.40;91.30
42973;DHT22;28610;51.214;6.962;2022-08-19T07:07:55;20.30;91.30
42973;DHT22;28610;51.214;6.962;2022-08-19T07:10:43;20.50;91.10
42973;DHT22;28610;51.214;6.962;2022-08-19T07:13:30;20.60;90.90
42973;DHT22;28610;51.214;6.962;2022-08-19T07:16:20;20.60;90.90
42973;DHT22;28610;51.214;6.962;2022-08-19T07:19:05;20.70;90.90
42973;DHT22;28610;51.214;6.962;2022-08-19T07:21:52;20.80;90.70
42973;DHT22;28610;51.214;6.962;2022-08-19T07:24:38;20.90;90.20
42973;DHT22;28610;51.214;6.962;2022-08-19T07:27:24;21.10;90.10
42973;DHT22;28610;51.214;6.962;2022-08-19T07:30:11;21.60;88.20
42973;DHT22;28610;51.214;6.962;2022-08-19T07:32:57;22.00;85.10
42973;DHT22;28610;51.214;6.962;2022-08-19T07:35:42;21.90;85.80
42973;DHT22;28610;51.214;6.962;2022-08-19T07:38:28;22.40;84.50
42973;DHT22;28610;51.214;6.962;2022-08-19T07:41:17;22.70;82.90
42973;DHT22;28610;51.214;6.962;2022-08-19T07:44:03;22.70;81.90
42973;DHT22;28610;51.214;6.962;2022-08-19T07:46:53;22.70;81.20
42973;DHT22;28610;51.214;6.962;2022-08-19T07:49:39;22.50;82.40
42973;DHT22;28610;51.214;6.962;2022-08-19T07:52:25;22.80;81.90
42973;DHT22;28610;51.214;6.962;2022-08-19T07:55:11;22.70;81.00
42973;DHT22;28610;51.214;6.962;2022-08-19T07:57:56;22.70;81.80
42973;DHT22;28610;51.214;6.962;2022-08-19T08:00:43;22.80;82.10
42973;DHT22;28610;51.214;6.962;2022-08-19T08:03:30;22.40;83.30
42973;DHT22;28610;51.214;6.962;2022-08-19T08:06:33;22.10;85.60
42973;DHT22;28610;51.214;6.962;2022-08-19T08:09:40;22.10;86.00
42973;DHT22;28610;51.214;6.962;2022-08-19T08:12:28;21.90;87.00
42973;DHT22;28610;51.214;6.962;2022-08-19T08:15:15;21.90;86.50
42973;DHT22;28610;51.214;6.962;2022-08-19T08:18:02;22.10;86.00
42973;DHT22;28610;51.214;6.962;2022-08-19T08:20:49;22.20;85.60
42973;DHT22;28610;51.214;6.962;2022-08-19T08:23:35;22.10;85.60
42973;DHT22;28610;51.214;6.962;2022-08-19T08:26:20;22.30;85.10
42973;DHT22;28610;51.214;6.962;2022-08-19T08:29:05;22.70;82.30
42973;DHT22;28610;51.214;6.962;2022-08-19T08:31:51;22.80;80.80
42973;DHT22;28610;51.214;6.962;2022-08-19T08:34:37;23.20;79.70
42973;DHT22;28610;51.214;6.962;2022-08-19T08:37:24;23.50;77.40
42973;DHT22;28610;51.214;6.962;2022-08-19T08:40:17;23.50;78.00
42973;DHT22;28610;51.214;6.962;2022-08-19T08:43:07;24.00;77.20
42973;DHT22;28610;51.214;6.962;2022-08-19T08:45:59;23.80;75.40
42973;DHT22;28610;51.214;6.962;2022-08-19T08:48:47;24.20;74.80
42973;DHT22;28610;51.214;6.962;2022-08-19T08:51:37;24.40;74.20
42973;DHT22;28610;51.214;6.962;2022-08-19T08:54:26;24.50;72.40
42973;DHT22;28610;51.214;6.962;2022-08-19T08:57:15;24.40;72.80
42973;DHT22;28610;51.214;6.962;2022-08-19T09:00:07;24.60;72.00
42973;DHT22;28610;51.214;6.962;2022-08-19T09:02:55;24.10;73.30
42973;DHT22;28610;51.214;6.962;2022-08-19T09:05:49;24.60;73.10
42973;DHT22;28610;51.214;6.962;2022-08-19T09:08:45;24.80;72.20
42973;DHT22;28610;51.214;6.962;2022-08-19T09:11:44;25.00;69.30
42973;DHT22;28610;51.214;6.962;2022-08-19T09:14:37;25.00;69.80
42973;DHT22;28610;51.214;6.962;2022-08-19T09:17:28;25.10;66.60
42973;DHT22;28610;51.214;6.962;2022-08-19T09:20:18;25.20;65.60
42973;DHT22;28610;51.214;6.962;2022-08-19T09:23:04;25.40;64.90
42973;DHT22;28610;51.214;6.962;2022-08-19T09:25:49;25.30;65.20
42973;DHT22;28610;51.214;6.962;2022-08-19T09:28:36;24.60;66.40
42973;DHT22;28610;51.214;6.962;2022-08-19T09:31:26;24.70;68.20
42973;DHT22;28610;51.214;6.962;2022-08-19T09:34:12;24.70;68.70
42973;DHT22;28610;51.214;6.962;2022-08-19T09:36:57;25.00;67.50
42973;DHT22;28610;51.214;6.962;2022-08-19T09:39:43;24.80;68.70
42973;DHT22;28610;51.214;6.962;2022-08-19T09:42:29;24.60;68.20
42973;DHT22;28610;51.214;6.962;2022-08-19T09:45:18;24.60;68.40
42973;DHT22;28610;51.214;6.962;2022-08-19T09:48:05;24.60;66.00
42973;DHT22;28610;51.214;6.962;2022-08-19T09:50:51;25.10;64.10
42973;DHT22;28610;51.214;6.962;2022-08-19T09:53:37;25.70;60.70
42973;DHT22;28610;51.214;6.962;2022-08-19T09:56:23;25.50;59.00
42973;DHT22;28610;51.214;6.962;2022-08-19T09:59:08;26.20;57.00
42973;DHT22;28610;51.214;6.962;2022-08-19T10:01:57;26.90;55.70
42973;DHT22;28610;51.214;6.962;2022-08-19T10:04:42;27.30;52.70
42973;DHT22;28610;51.214;6.962;2022-08-19T10:07:45;27.60;51.30
42973;DHT22;28610;51.214;6.962;2022-08-19T10:10:35;28.30;48.40
42973;DHT22;28610;51.214;6.962;2022-08-19T10:13:27;28.50;47.60
42973;DHT22;28610;51.214;6.962;2022-08-19T10:16:14;28.90;45.70
42973;DHT22;28610;51.214;6.962;2022-08-19T10:19:01;28.20;46.70
42973;DHT22;28610;51.214;6.962;2022-08-19T10:21:46;27.00;49.70
42973;DHT22;28610;51.214;6.962;2022-08-19T10:24:33;27.90;47.80
42973;DHT22;28610;51.214;6.962;2022-08-19T10:27:19;28.10;46.30
42973;DHT22;28610;51.214;6.962;2022-08-19T10:30:05;28.70;44.20
42973;DHT22;28610;51.214;6.962;2022-08-19T10:32:51;30.60;41.50
42973;DHT22;28610;51.214;6.962;2022-08-19T10:35:38;30.70;37.30
42973;DHT22;28610;51.214;6.962;2022-08-19T10:38:24;30.70;38.00
42973;DHT22;28610;51.214;6.962;2022-08-19T10:41:11;30.80;38.10
42973;DHT22;28610;51.214;6.962;2022-08-19T10:43:58;29.00;41.60
42973;DHT22;28610;51.214;6.962;2022-08-19T10:46:44;27.70;46.80
42973;DHT22;28610;51.214;6.962;2022-08-19T10:49:31;27.20;50.10
42973;DHT22;28610;51.214;6.962;2022-08-19T10:52:39;26.80;50.70
42973;DHT22;28610;51.214;6.962;2022-08-19T10:55:24;27.00;51.20
42973;DHT22;28610;51.214;6.962;2022-08-19T10:58:27;27.20;50.90
42973;DHT22;28610;51.214;6.962;2022-08-19T11:01:13;27.40;50.60
42973;DHT22;28610;51.214;6.962;2022-08-19T11:03:59;26.80;50.50
42973;DHT22;28610;51.214;6.962;2022-08-19T11:06:46;26.70;51.40
42973;DHT22;28610;51.214;6.962;2022-08-19T11:09:38;26.50;51.90
42973;DHT22;28610;51.214;6.962;2022-08-19T11:12:24;26.40;52.10
42973;DHT22;28610;51.214;6.962;2022-08-19T11:15:11;26.10;52.60
42973;DHT22;28610;51.214;6.962;2022-08-19T11:17:57;26.30;52.40
42973;DHT22;28610;51.214;6.962;2022-08-19T11:20:42;26.30;53.20
42973;DHT22;28610;51.214;6.962;2022-08-19T11:23:28;26.40;53.20
42973;DHT22;28610;51.214;6.962;2022-08-19T11:26:15;26.50;51.00
42973;DHT22;28610;51.214;6.962;2022-08-19T11:29:01;26.90;51.70
42973;DHT22;28610;51.214;6.962;2022-08-19T11:31:49;27.20;50.70
42973;DHT22;28610;51.214;6.962;2022-08-19T11:34:35;27.20;50.10
42973;DHT22;28610;51.214;6.962;2022-08-19T11:37:20;27.50;49.70
42973;DHT22;28610;51.214;6.962;2022-08-19T11:40:07;27.70;47.80
42973;DHT22;28610;51.214;6.962;2022-08-19T11:42:54;28.00;47.60
42973;DHT22;28610;51.214;6.962;2022-08-19T11:45:40;28.00;46.30
42973;DHT22;28610;51.214;6.962;2022-08-19T11:48:25;28.00;45.80
42973;DHT22;28610;51.214;6.962;2022-08-19T11:51:16;27.90;47.10
42973;DHT22;28610;51.214;6.962;2022-08-19T11:54:04;27.10;46.90
42973;DHT22;28610;51.214;6.962;2022-08-19T11:56:50;27.10;47.60
42973;DHT22;28610;51.214;6.962;2022-08-19T11:59:37;26.90;47.20
42973;DHT22;28610;51.214;6.962;2022-08-19T12:02:22;26.90;48.50
42973;DHT22;28610;51.214;6.962;2022-08-19T12:05:08;26.80;47.90
42973;DHT22;28610;51.214;6.962;2022-08-19T12:07:54;26.80;46.70
42973;DHT22;28610;51.214;6.962;2022-08-19T12:10:40;27.20;46.20
42973;DHT22;28610;51.214;6.962;2022-08-19T12:13:26;27.10;44.90
42973;DHT22;28610;51.214;6.962;2022-08-19T12:16:16;27.50;45.40
42973;DHT22;28610;51.214;6.962;2022-08-19T12:19:04;27.80;45.60
42973;DHT22;28610;51.214;6.962;2022-08-19T12:21:50;27.20;46.60
42973;DHT22;28610;51.214;6.962;2022-08-19T12:24:37;27.10;46.30
42973;DHT22;28610;51.214;6.962;2022-08-19T12:27:22;26.90;47.10
42973;DHT22;28610;51.214;6.962;2022-08-19T12:30:10;26.80;47.90
42973;DHT22;28610;51.214;6.962;2022-08-19T12:32:57;26.80;47.80
42973;DHT22;28610;51.214;6.962;2022-08-19T12:35:44;27.00;47.30
42973;DHT22;28610;51.214;6.962;2022-08-19T12:38:30;27.20;46.20
42973;DHT22;28610;51.214;6.962;2022-08-19T12:41:17;26.80;45.00
42973;DHT22;28610;51.214;6.962;2022-08-19T12:44:02;26.60;46.10
42973;DHT22;28610;51.214;6.962;2022-08-19T12:46:49;26.50;47.10
42973;DHT22;28610;51.214;6.962;2022-08-19T12:49:37;26.60;47.00
42973;DHT22;28610;51.214;6.962;2022-08-19T12:52:24;27.00;47.00
42973;DHT22;28610;51.214;6.962;2022-08-19T12:55:11;27.20;45.70
42973;DHT22;28610;51.214;6.962;2022-08-19T12:57:56;27.20;44.30
42973;DHT22;28610;51.214;6.962;2022-08-19T13:00:42;27.40;44.80
42973;DHT22;28610;51.214;6.962;2022-08-19T13:03:27;27.20;43.00
42973;DHT22;28610;51.214;6.962;2022-08-19T13:06:14;27.10;43.30
42973;DHT22;28610;51.214;6.962;2022-08-19T13:09:00;27.30;43.60
42973;DHT22;28610;51.214;6.962;2022-08-19T13:11:45;27.50;42.30
42973;DHT22;28610;51.214;6.962;2022-08-19T13:14:31;27.50;41.60
42973;DHT22;28610;51.214;6.962;2022-08-19T13:17:16;27.20;42.80
42973;DHT22;28610;51.214;6.962;2022-08-19T13:20:02;27.30;42.40
42973;DHT22;28610;51.214;6.962;2022-08-19T13:22:50;26.90;42.50
42973;DHT22;28610;51.214;6.962;2022-08-19T13:25:35;26.90;43.30
42973;DHT22;28610;51.214;6.962;2022-08-19T13:28:20;27.20;43.20
42973;DHT22;28610;51.214;6.962;2022-08-19T13:31:06;27.70;43.30
42973;DHT22;28610;51.214;6.962;2022-08-19T13:34:09;27.60;42.10
42973;DHT22;28610;51.214;6.962;2022-08-19T13:36:54;27.60;42.20
42973;DHT22;28610;51.214;6.962;2022-08-19T13:39:41;27.70;41.90
42973;DHT22;28610;51.214;6.962;2022-08-19T13:42:26;27.70;41.90
42973;DHT22;28610;51.214;6.962;2022-08-19T13:45:16;27.90;41.40
42973;DHT22;28610;51.214;6.962;2022-08-19T13:48:04;28.20;41.50
42973;DHT22;28610;51.214;6.962;2022-08-19T13:50:50;28.20;40.70
42973;DHT22;28610;51.214;6.962;2022-08-19T13:53:36;27.90;39.20
42973;DHT22;28610;51.214;6.962;2022-08-19T13:56:23;28.20;40.00
42973;DHT22;28610;51.214;6.962;2022-08-19T13:59:08;27.80;40.20
42973;DHT22;28610;51.214;6.962;2022-08-19T14:01:57;27.50;41.60
42973;DHT22;28610;51.214;6.962;2022-08-19T14:04:43;27.60;41.40
42973;DHT22;28610;51.214;6.962;2022-08-19T14:07:28;27.70;40.70
42973;DHT22;28610;51.214;6.962;2022-08-19T14:10:15;27.70;40.30
42973;DHT22;28610;51.214;6.962;2022-08-19T14:13:03;27.60;39.70
42973;DHT22;28610;51.214;6.962;2022-08-19T14:15:49;27.60;39.40
42973;DHT22;28610;51.214;6.962;2022-08-19T14:18:35;28.00;39.00
42973;DHT22;28610;51.214;6.962;2022-08-19T14:21:22;28.10;38.10
42973;DHT22;28610;51.214;6.962;2022-08-19T14:24:09;28.10;38.00
42973;DHT22;28610;51.214;6.962;2022-08-19T14:26:55;28.00;38.00
42973;DHT22;28610;51.214;6.962;2022-08-19T14:29:42;27.40;38.60
42973;DHT22;28610;51.214;6.962;2022-08-19T14:32:28;27.50;39.60
42973;DHT22;28610;51.214;6.962;2022-08-19T14:35:15;27.50;38.80
42973;DHT22;28610;51.214;6.962;2022-08-19T14:38:02;27.80;38.80
42973;DHT22;28610;51.214;6.962;2022-08-19T14:40:48;27.60;38.00
42973;DHT22;28610;51.214;6.962;2022-08-19T14:43:36;27.30;38.90
42973;DHT22;28610;51.214;6.962;2022-08-19T14:46:25;27.20;40.00
42973;DHT22;28610;51.214;6.962;2022-08-19T14:49:11;27.40;39.50
42973;DHT22;28610;51.214;6.962;2022-08-19T14:51:57;27.30;38.30
42973;DHT22;28610;51.214;6.962;2022-08-19T14:54:42;27.40;38.80
42973;DHT22;28610;51.214;6.962;2022-08-19T14:57:28;27.50;37.30
42973;DHT22;28610;51.214;6.962;2022-08-19T15:00:14;27.60;36.90
42973;DHT22;28610;51.214;6.962;2022-08-19T15:03:01;27.70;37.30
42973;DHT22;28610;51.214;6.962;2022-08-19T15:05:46;27.40;37.00
42973;DHT22;28610;51.214;6.962;2022-08-19T15:08:33;27.50;38.30
42973;DHT22;28610;51.214;6.962;2022-08-19T15:11:23;27.70;38.60
42973;DHT22;28610;51.214;6.962;2022-08-19T15:14:08;27.70;37.60
42973;DHT22;28610;51.214;6.962;2022-08-19T15:16:54;27.80;37.60
42973;DHT22;28610;51.214;6.962;2022-08-19T15:19:41;28.00;38.00
42973;DHT22;28610;51.214;6.962;2022-08-19T15:22:26;27.80;37.70
42973;DHT22;28610;51.214;6.962;2022-08-19T15:25:15;27.30;38.50
42973;DHT22;28610;51.214;6.962;2022-08-19T15:28:00;27.30;39.00
42973;DHT22;28610;51.214;6.962;2022-08-19T15:30:47;27.30;39.10
42973;DHT22;28610;51.214;6.962;2022-08-19T15:33:35;27.30;39.50
42973;DHT22;28610;51.214;6.962;2022-08-19T15:36:22;27.20;39.60
42973;DHT22;28610;51.214;6.962;2022-08-19T15:39:08;27.00;40.20
42973;DHT22;28610;51.214;6.962;2022-08-19T15:41:54;26.80;39.30
42973;DHT22;28610;51.214;6.962;2022-08-19T15:44:39;26.80;40.90
42973;DHT22;28610;51.214;6.962;2022-08-19T15:47:25;26.80;40.60
42973;DHT22;28610;51.214;6.962;2022-08-19T15:50:15;27.00;40.70
42973;DHT22;28610;51.214;6.962;2022-08-19T15:53:05;27.10;40.10
42973;DHT22;28610;51.214;6.962;2022-08-19T15:55:51;27.00;39.80
42973;DHT22;28610;51.214;6.962;2022-08-19T15:58:37;27.00;40.80
42973;DHT22;28610;51.214;6.962;2022-08-19T16:01:40;26.70;40.70
42973;DHT22;28610;51.214;6.962;2022-08-19T16:04:43;26.60;41.20
42973;DHT22;28610;51.214;6.962;2022-08-19T16:07:46;26.80;41.20
42973;DHT22;28610;51.214;6.962;2022-08-19T16:10:34;26.80;41.50
42973;DHT22;28610;51.214;6.962;2022-08-19T16:13:19;26.80;41.60
42973;DHT22;28610;51.214;6.962;2022-08-19T16:16:05;26.70;42.40
42973;DHT22;28610;51.214;6.962;2022-08-19T16:18:50;26.50;42.70
42973;DHT22;28610;51.214;6.962;2022-08-19T16:21:36;26.20;43.20
42973;DHT22;28610;51.214;6.962;2022-08-19T16:24:25;26.10;43.70
42973;DHT22;28610;51.214;6.962;2022-08-19T16:27:12;25.90;44.80
42973;DHT22;28610;51.214;6.962;2022-08-19T16:29:57;25.80;45.30
42973;DHT22;28610;51.214;6.962;2022-08-19T16:32:43;25.90;45.60
42973;DHT22;28610;51.214;6.962;2022-08-19T16:35:28;25.90;45.90
42973;DHT22;28610;51.214;6.962;2022-08-19T16:38:13;25.70;46.30
42973;DHT22;28610;51.214;6.962;2022-08-19T16:40:59;25.70;46.50
42973;DHT22;28610;51.214;6.962;2022-08-19T16:43:46;26.00;46.50
42973;DHT22;28610;51.214;6.962;2022-08-19T16:46:38;26.00;46.40
42973;DHT22;28610;51.214;6.962;2022-08-19T16:49:25;26.10;46.60
42973;DHT22;28610;51.214;6.962;2022-08-19T16:52:10;26.00;46.70
42973;DHT22;28610;51.214;6.962;2022-08-19T16:54:56;25.90;47.70
42973;DHT22;28610;51.214;6.962;2022-08-19T16:57:41;25.80;49.00
42973;DHT22;28610;51.214;6.962;2022-08-19T17:00:28;25.70;49.80
42973;DHT22;28610;51.214;6.962;2022-08-19T17:03:16;25.50;50.40
42973;DHT22;28610;51.214;6.962;2022-08-19T17:06:07;25.40;50.70
42973;DHT22;28610;51.214;6.962;2022-08-19T17:08:54;25.40;51.10
42973;DHT22;28610;51.214;6.962;2022-08-19T17:11:39;25.20;51.20
42973;DHT22;28610;51.214;6.962;2022-08-19T17:14:25;25.30;51.40
42973;DHT22;28610;51.214;6.962;2022-08-19T17:17:11;25.30;52.00
42973;DHT22;28610;51.214;6.962;2022-08-19T17:19:58;25.40;51.80
42973;DHT22;28610;51.214;6.962;2022-08-19T17:22:44;25.40;52.30
42973;DHT22;28610;51.214;6.962;2022-08-19T17:25:30;25.50;51.50
42973;DHT22;28610;51.214;6.962;2022-08-19T17:28:17;25.50;51.10
42973;DHT22;28610;51.214;6.962;2022-08-19T17:31:03;25.50;51.00
42973;DHT22;28610;51.214;6.962;2022-08-19T17:33:51;25.50;51.30
42973;DHT22;28610;51.214;6.962;2022-08-19T17:36:37;25.40;51.70